Arcadia, Pennsylvania
Current Conditions -  °F | °C
As of 11:15 AM on Thursday 27 Nov 2014 (Local Time) from KIDI Reporting Station
Overcast Overcast  
Wind Chill: 28°   Ceiling: 6000
Heat Index: 34°   Visibility: 10mi
Dew Point: 28°   Wind: 7mph
Humidity: 81%   Direction: 300°WNW
Pressure: 30.07"   Gusts: NA
Location:  40.78°N, 78.85°W
Report Text: KIDI 271615Z AUTO 30006KT 10SM FEW017 SCT022 OVC060 01/M02 A3007 RMK A01
Loading
Personal Weather Stations






























Interactive Weather Map New forecast layout! Learn more

10-Day Weather Forecast

Advertisements
Track Severe Weather on mobile